Time;durP1;ratioP1;P1;durP2;ratioP2;P2;SDS_P1;SDS_P2;PMS_P1;PMS_P2;Temp;Humidity;BMP_temperature;BMP_pressure;BME280_temperature;BME280_humidity;BME280_pressure;Samples;Min_cycle;Max_cycle;Signal;HPM_P1;HPM_P2
2022/03/04 00:00:25;;;;;;;20.15;9.63;;;;;;;-0.85;58.97;96575.25;2076865;28;20218;-59
2022/03/04 00:01:27;;;;;;;16.58;10.10;;;;;;;-0.98;58.69;96574.72;2076539;28;20205;-59
2022/03/04 00:02:29;;;;;;;19.88;10.38;;;;;;;-1.05;59.50;96574.00;2074371;28;20193;-59
2022/03/04 00:03:30;;;;;;;22.88;10.07;;;;;;;-1.07;59.72;96570.59;2075113;28;20239;-59
2022/03/04 00:04:37;;;;;;;21.52;9.98;;;;;;;-1.01;59.47;96578.19;2076082;28;20208;-59
2022/03/04 00:05:42;;;;;;;24.60;10.52;;;;;;;-1.14;59.86;96579.31;2078497;28;20225;-60
2022/03/04 00:06:43;;;;;;;17.35;9.88;;;;;;;-1.10;59.98;96585.25;2074790;28;20551;-59
2022/03/04 00:07:45;;;;;;;18.88;9.63;;;;;;;-1.23;60.23;96575.25;2076293;28;20196;-59
2022/03/04 00:08:46;;;;;;;18.42;10.32;;;;;;;-1.17;59.86;96578.59;2077223;28;20202;-59
2022/03/04 00:09:48;;;;;;;25.15;11.05;;;;;;;-1.18;59.68;96584.59;2078329;28;20198;-59
2022/03/04 00:10:49;;;;;;;18.38;9.73;;;;;;;-1.08;59.19;96576.66;2078555;28;20293;-59
2022/03/04 00:11:51;;;;;;;21.58;9.10;;;;;;;-1.10;59.07;96577.53;2079608;28;20202;-59
2022/03/04 00:12:54;;;;;;;21.17;9.75;;;;;;;-1.07;58.47;96580.88;2077642;28;20198;-59
2022/03/04 00:13:55;;;;;;;20.65;8.52;;;;;;;-1.08;59.06;96581.78;2078352;28;20196;-59
2022/03/04 00:14:56;;;;;;;18.98;9.55;;;;;;;-1.11;58.67;96578.44;2077317;28;20739;-59
2022/03/04 00:15:58;;;;;;;21.40;10.27;;;;;;;-1.06;58.63;96582.59;2077069;28;20218;-59
2022/03/04 00:17:00;;;;;;;19.27;9.98;;;;;;;-0.95;57.98;96584.91;2076799;28;20672;-59
2022/03/04 00:18:01;;;;;;;24.75;10.90;;;;;;;-1.03;59.04;96582.50;2078291;28;20692;-59
2022/03/04 00:19:06;;;;;;;18.48;10.23;;;;;;;-1.17;59.68;96584.56;2079193;28;20202;-59
2022/03/04 00:20:09;;;;;;;17.23;10.43;;;;;;;-1.18;60.11;96580.28;2077642;28;20221;-58
2022/03/04 00:21:11;;;;;;;17.52;10.82;;;;;;;-1.28;60.74;96579.66;2077126;28;20208;-59
2022/03/04 00:22:16;;;;;;;17.20;10.38;;;;;;;-1.32;60.76;96583.16;2077954;28;20196;-59
2022/03/04 00:23:18;;;;;;;21.50;10.30;;;;;;;-1.40;60.81;96575.63;2078864;28;20209;-59
2022/03/04 00:24:21;;;;;;;16.85;9.05;;;;;;;-1.34;61.11;96587.50;2074488;28;20206;-57
2022/03/04 00:25:23;;;;;;;20.77;9.77;;;;;;;-1.30;60.82;96589.13;2077880;28;20221;-57
2022/03/04 00:26:24;;;;;;;18.13;9.95;;;;;;;-1.30;60.58;96589.13;2076497;28;20202;-57
2022/03/04 00:27:25;;;;;;;18.02;9.95;;;;;;;-1.28;60.35;96581.38;2077398;28;20634;-57
2022/03/04 00:28:27;;;;;;;18.35;10.25;;;;;;;-1.26;60.80;96584.75;2078161;28;20197;-57
2022/03/04 00:29:29;;;;;;;26.73;11.77;;;;;;;-1.32;60.36;96582.31;2075518;28;20202;-57
2022/03/04 00:30:31;;;;;;;21.67;11.30;;;;;;;-1.37;60.85;96585.00;2076064;28;20250;-57
2022/03/04 00:31:33;;;;;;;17.33;9.73;;;;;;;-1.53;61.35;96586.19;2078755;28;20204;-57
2022/03/04 00:32:36;;;;;;;27.35;12.77;;;;;;;-1.40;61.38;96588.47;2077198;28;20207;-56
2022/03/04 00:33:37;;;;;;;19.15;10.20;;;;;;;-1.36;61.12;96583.28;2076674;28;20201;-57
2022/03/04 00:34:39;;;;;;;19.17;10.82;;;;;;;-1.40;60.91;96592.75;2076333;28;20194;-57
2022/03/04 00:35:40;;;;;;;24.45;11.00;;;;;;;-1.30;60.76;96588.28;2077066;28;20222;-57
2022/03/04 00:36:42;;;;;;;21.13;10.90;;;;;;;-1.40;60.75;96585.91;2075637;28;20213;-57
2022/03/04 00:37:43;;;;;;;20.65;11.20;;;;;;;-1.40;60.42;96583.31;2078532;28;20285;-57
2022/03/04 00:38:45;;;;;;;22.85;11.55;;;;;;;-1.43;60.89;96587.69;2080549;28;20200;-57
2022/03/04 00:39:46;;;;;;;18.60;10.88;;;;;;;-1.50;61.25;96586.97;2077552;28;20206;-57
2022/03/04 00:40:48;;;;;;;25.50;11.82;;;;;;;-1.59;62.04;96589.72;2078397;28;20660;-59
2022/03/04 00:41:50;;;;;;;27.75;13.00;;;;;;;-1.64;63.19;96594.13;2076021;28;20249;-59
2022/03/04 00:42:51;;;;;;;24.25;13.30;;;;;;;-1.77;63.14;96588.41;2077567;28;20202;-59
2022/03/04 00:43:53;;;;;;;21.92;10.93;;;;;;;-1.84;63.65;96582.56;2078288;28;20199;-58
2022/03/04 00:44:54;;;;;;;27.67;12.70;;;;;;;-1.96;63.77;96593.06;2078273;28;20227;-57
2022/03/04 00:45:56;;;;;;;23.15;12.02;;;;;;;-1.99;63.93;96593.94;2075630;28;20198;-59
2022/03/04 00:46:57;;;;;;;25.80;12.52;;;;;;;-2.16;64.04;96585.72;2078096;28;20198;-59
2022/03/04 00:47:59;;;;;;;23.35;12.13;;;;;;;-2.01;63.79;96594.88;2077290;28;20199;-59
2022/03/04 00:49:02;;;;;;;21.33;12.02;;;;;;;-2.02;63.86;96594.03;2080083;28;20246;-59
2022/03/04 00:50:05;;;;;;;30.20;13.35;;;;;;;-2.12;64.15;96595.06;2077515;28;20233;-59
2022/03/04 00:51:08;;;;;;;25.98;13.77;;;;;;;-2.12;64.62;96589.09;2076516;28;20241;-58
2022/03/04 00:52:09;;;;;;;24.05;12.45;;;;;;;-2.12;64.49;96592.47;2077301;28;20206;-59
2022/03/04 00:53:10;;;;;;;27.20;12.52;;;;;;;-2.08;64.42;96595.84;2077204;28;20203;-58
2022/03/04 00:54:12;;;;;;;26.85;12.32;;;;;;;-2.10;64.02;96595.88;2076899;28;20206;-59
2022/03/04 00:55:13;;;;;;;26.02;12.40;;;;;;;-2.17;64.28;96593.47;2074175;28;20225;-58
2022/03/04 00:56:15;;;;;;;24.75;13.57;;;;;;;-2.09;64.32;96589.03;2078638;28;20209;-59
2022/03/04 00:57:16;;;;;;;24.92;12.50;;;;;;;-2.06;64.26;96587.25;2077627;28;20213;-59
2022/03/04 00:58:18;;;;;;;19.20;10.50;;;;;;;-2.13;64.27;96587.41;2078194;28;20666;-59
2022/03/04 00:59:19;;;;;;;28.40;12.38;;;;;;;-2.19;64.73;96585.78;2073453;28;20199;-59
2022/03/04 01:00:21;;;;;;;32.38;12.77;;;;;;;-2.13;64.69;96589.97;2075951;28;20241;-57
2022/03/04 01:01:22;;;;;;;23.13;12.38;;;;;;;-2.15;64.26;96581.47;2076107;28;20211;-57
2022/03/04 01:02:24;;;;;;;24.58;13.02;;;;;;;-2.21;64.72;96585.81;2076631;28;20202;-57
2022/03/04 01:03:26;;;;;;;21.80;12.70;;;;;;;-2.21;64.77;96570.41;2076674;28;20914;-57
2022/03/04 01:04:28;;;;;;;23.95;13.48;;;;;;;-2.10;64.34;96589.91;2078801;28;20194;-57
2022/03/04 01:05:29;;;;;;;23.40;11.90;;;;;;;-2.04;64.25;96584.66;2079604;28;20229;-57
2022/03/04 01:06:31;;;;;;;25.00;13.23;;;;;;;-2.03;64.11;96581.22;2078258;28;20774;-56
2022/03/04 01:07:33;;;;;;;24.17;12.90;;;;;;;-2.03;63.39;96582.06;2076056;28;20199;-58
2022/03/04 01:08:34;;;;;;;25.35;12.02;;;;;;;-2.01;63.39;96579.47;2075422;28;20213;-58
2022/03/04 01:09:36;;;;;;;24.23;12.45;;;;;;;-1.94;63.19;96586.19;2079052;28;20262;-58
2022/03/04 01:10:38;;;;;;;23.58;12.10;;;;;;;-2.02;63.80;96582.91;2077805;28;20194;-58
2022/03/04 01:11:40;;;;;;;26.73;13.93;;;;;;;-2.17;64.20;96586.63;2073290;28;20202;-58
2022/03/04 01:12:41;;;;;;;25.33;13.63;;;;;;;-2.16;64.60;96590.00;2077480;28;20198;-58
2022/03/04 01:13:43;;;;;;;24.27;11.50;;;;;;;-2.03;63.95;96587.19;2077659;28;20645;-58
2022/03/04 01:14:44;;;;;;;22.40;12.02;;;;;;;-2.02;63.72;96591.47;2075992;28;20665;-58
2022/03/04 01:15:46;;;;;;;23.02;11.95;;;;;;;-2.22;64.30;96596.94;2076181;28;20209;-58
2022/03/04 01:16:47;;;;;;;21.67;11.73;;;;;;;-2.13;63.93;96585.69;2076753;28;20210;-58
2022/03/04 01:17:49;;;;;;;23.48;12.43;;;;;;;-2.15;64.19;96586.59;2076769;28;20197;-58
2022/03/04 01:18:51;;;;;;;26.17;13.20;;;;;;;-2.09;64.19;96591.59;2077659;28;20221;-58
2022/03/04 01:19:52;;;;;;;22.15;12.38;;;;;;;-2.03;63.98;96586.34;2075439;28;20194;-57
2022/03/04 01:20:54;;;;;;;19.00;11.88;;;;;;;-2.01;63.80;96588.00;2078807;28;20193;-56
2022/03/04 01:21:56;;;;;;;27.48;13.10;;;;;;;-2.24;64.38;96588.44;2076807;28;20202;-57
2022/03/04 01:22:58;;;;;;;24.98;12.50;;;;;;;-2.41;65.58;96585.31;2076689;28;20198;-56
2022/03/04 01:24:00;;;;;;;26.70;12.93;;;;;;;-2.46;65.34;96587.97;2076641;28;20210;-57
2022/03/04 01:25:02;;;;;;;25.58;12.85;;;;;;;-2.45;65.50;96576.00;2075819;28;20228;-56
2022/03/04 01:26:04;;;;;;;27.80;14.18;;;;;;;-2.45;65.74;96582.00;2076513;28;20197;-57
2022/03/04 01:27:05;;;;;;;24.38;13.15;;;;;;;-2.31;65.47;96586.00;2075224;28;20194;-57
2022/03/04 01:28:07;;;;;;;25.50;12.57;;;;;;;-2.20;64.96;96587.50;2079529;28;20210;-57
2022/03/04 01:29:08;;;;;;;25.25;13.45;;;;;;;-2.17;64.71;96588.34;2080314;28;20203;-56
2022/03/04 01:30:16;;;;;;;25.70;13.07;;;;;;;-2.18;64.72;96584.91;2074737;28;20218;-56
2022/03/04 01:31:18;;;;;;;24.73;12.68;;;;;;;-2.14;64.49;96591.66;2078204;28;20737;-57
2022/03/04 01:32:19;;;;;;;24.02;11.98;;;;;;;-2.09;64.52;96581.34;2080156;28;20201;-57
2022/03/04 01:33:21;;;;;;;25.30;12.63;;;;;;;-2.14;64.48;96583.97;2075368;28;20553;-56
2022/03/04 01:34:22;;;;;;;25.38;13.25;;;;;;;-2.21;65.11;96578.13;2075293;28;20718;-56
2022/03/04 01:35:24;;;;;;;27.73;13.23;;;;;;;-2.08;64.54;96580.44;2071308;28;20221;-57
2022/03/04 01:36:30;;;;;;;20.95;11.20;;;;;;;-2.20;64.79;96578.97;2075724;28;20532;-56
2022/03/04 01:37:31;;;;;;;21.25;11.48;;;;;;;-2.24;64.96;96580.72;2075073;28;20263;-57
2022/03/04 01:38:33;;;;;;;26.70;12.95;;;;;;;-2.26;64.65;96574.78;2077383;28;20197;-57
2022/03/04 01:39:36;;;;;;;26.40;13.50;;;;;;;-2.20;64.43;96576.41;2075449;28;20738;-57
2022/03/04 01:40:38;;;;;;;23.75;11.93;;;;;;;-2.29;64.78;96579.16;2076906;28;20258;-57
2022/03/04 01:41:39;;;;;;;23.00;11.93;;;;;;;-2.45;65.10;96573.41;2077630;28;20201;-56
2022/03/04 01:42:41;;;;;;;31.67;13.60;;;;;;;-2.47;65.66;96575.16;2076444;28;20754;-57
2022/03/04 01:43:43;;;;;;;23.95;12.98;;;;;;;-2.32;65.61;96577.47;2077098;28;20189;-57
2022/03/04 01:44:45;;;;;;;29.00;13.15;;;;;;;-2.44;66.12;96573.41;2078568;28;20206;-57
2022/03/04 01:45:46;;;;;;;25.35;12.40;;;;;;;-2.47;66.02;96570.03;2075576;28;20559;-58
2022/03/04 01:46:48;;;;;;;24.65;13.55;;;;;;;-2.43;65.94;96574.25;2077536;28;20186;-57
2022/03/04 01:47:49;;;;;;;26.27;12.70;;;;;;;-2.33;65.61;96569.78;2077089;28;20561;-56
2022/03/04 01:48:51;;;;;;;22.17;12.13;;;;;;;-2.39;65.59;96565.66;2078200;28;20634;-57
2022/03/04 01:49:53;;;;;;;28.55;11.32;;;;;;;-2.15;64.33;96566.06;2078024;28;20199;-57
2022/03/04 01:50:54;;;;;;;27.20;13.90;;;;;;;-2.32;64.76;96566.38;2076148;28;20205;-57
2022/03/04 01:51:56;;;;;;;23.95;12.82;;;;;;;-2.36;64.64;96564.72;2078892;28;20201;-57
2022/03/04 01:52:57;;;;;;;27.67;14.15;;;;;;;-2.43;64.98;96561.41;2077641;28;20553;-56
2022/03/04 01:53:59;;;;;;;24.08;12.95;;;;;;;-2.47;65.71;96563.22;2079185;28;20197;-56
2022/03/04 01:55:00;;;;;;;23.73;13.10;;;;;;;-2.42;65.37;96563.97;2076150;28;20218;-56
2022/03/04 01:56:03;;;;;;;24.50;12.70;;;;;;;-2.48;65.56;96560.66;2077008;28;20214;-57
2022/03/04 01:57:04;;;;;;;27.15;13.18;;;;;;;-2.53;65.77;96560.72;2076828;28;20440;-57
2022/03/04 01:58:06;;;;;;;24.55;12.02;;;;;;;-2.49;66.00;96566.66;2077726;28;20217;-57
2022/03/04 01:59:07;;;;;;;22.05;12.00;;;;;;;-2.47;65.86;96562.34;2077813;28;20197;-57
2022/03/04 02:00:12;;;;;;;20.88;12.10;;;;;;;-2.55;65.68;96557.34;2075834;28;20226;-56
2022/03/04 02:01:14;;;;;;;22.52;11.65;;;;;;;-2.64;65.75;96560.94;2075518;28;20201;-57
2022/03/04 02:02:16;;;;;;;31.10;13.60;;;;;;;-2.55;65.71;96559.91;2075717;28;20197;-57
2022/03/04 02:03:18;;;;;;;27.63;13.40;;;;;;;-2.43;65.21;96556.28;2075054;28;20231;-57
2022/03/04 02:04:20;;;;;;;20.92;11.32;;;;;;;-2.53;65.64;96549.63;2073720;28;20198;-56
2022/03/04 02:05:22;;;;;;;29.10;13.70;;;;;;;-2.53;65.78;96563.28;2075229;28;20720;-57
2022/03/04 02:06:24;;;;;;;25.67;13.27;;;;;;;-2.49;65.60;96561.53;2075737;28;20567;-57
2022/03/04 02:07:25;;;;;;;22.58;12.25;;;;;;;-2.57;65.81;96559.09;2076180;28;20205;-57
2022/03/04 02:08:27;;;;;;;22.17;11.50;;;;;;;-2.61;65.91;96554.91;2078045;28;20552;-56
2022/03/04 02:09:29;;;;;;;21.40;11.00;;;;;;;-2.67;66.07;96558.41;2076736;28;20617;-57
2022/03/04 02:10:31;;;;;;;29.52;12.55;;;;;;;-2.52;65.51;96557.31;2075913;28;20232;-57
2022/03/04 02:11:32;;;;;;;25.40;11.43;;;;;;;-2.68;65.64;96558.47;2076821;28;20227;-57
2022/03/04 02:12:35;;;;;;;23.30;12.00;;;;;;;-2.72;65.43;96559.38;2076276;28;20209;-57
2022/03/04 02:13:40;;;;;;;24.25;11.95;;;;;;;-2.73;65.71;96555.97;2077041;28;20556;-57
2022/03/04 02:14:41;;;;;;;19.08;11.20;;;;;;;-2.71;65.63;96556.78;2076979;28;20194;-56
2022/03/04 02:15:46;;;;;;;22.13;11.13;;;;;;;-2.73;65.87;96553.41;2079737;28;20198;-57
2022/03/04 02:16:50;;;;;;;25.75;10.85;;;;;;;-2.74;66.30;96556.84;2075779;28;20829;-56
2022/03/04 02:17:52;;;;;;;20.65;11.70;;;;;;;-2.74;66.06;96556.84;2074160;28;20198;-56
2022/03/04 02:18:54;;;;;;;26.52;11.90;;;;;;;-2.70;66.01;96555.91;2073901;28;20202;-57
2022/03/04 02:19:56;;;;;;;18.40;10.13;;;;;;;-2.70;66.23;96553.34;2073650;28;20221;-56
2022/03/04 02:21:02;;;;;;;22.63;11.02;;;;;;;-2.73;66.22;96558.53;2074730;28;20201;-57
2022/03/04 02:22:04;;;;;;;20.17;10.60;;;;;;;-2.66;66.29;96562.69;2082553;28;20556;-57
2022/03/04 02:23:07;;;;;;;23.92;11.65;;;;;;;-2.47;65.55;96564.91;2083270;28;20212;-57
2022/03/04 02:24:08;;;;;;;24.70;10.65;;;;;;;-2.35;64.83;96553.59;2078255;28;20216;-56
2022/03/04 02:25:10;;;;;;;21.98;10.88;;;;;;;-2.33;64.65;96554.41;2078890;28;20222;-56
2022/03/04 02:26:11;;;;;;;27.83;11.60;;;;;;;-2.37;65.03;96558.75;2075479;28;20191;-57
2022/03/04 02:27:13;;;;;;;23.52;11.63;;;;;;;-2.29;64.31;96556.91;2076730;28;20209;-57
2022/03/04 02:28:15;;;;;;;23.67;10.82;;;;;;;-2.23;63.85;96553.38;2077900;28;20374;-57
2022/03/04 02:29:17;;;;;;;18.52;10.07;;;;;;;-2.10;63.47;96553.97;2076752;28;20541;-57
2022/03/04 02:30:19;;;;;;;21.88;10.57;;;;;;;-2.21;63.71;96555.03;2076648;28;20221;-56
2022/03/04 02:31:21;;;;;;;20.98;11.98;;;;;;;-2.21;64.04;96551.63;2076879;28;20209;-57
2022/03/04 02:32:22;;;;;;;27.25;11.90;;;;;;;-2.21;63.87;96556.75;2078001;28;20535;-57
2022/03/04 02:33:24;;;;;;;25.20;11.95;;;;;;;-2.17;64.16;96563.50;2076703;28;20399;-57
2022/03/04 02:34:26;;;;;;;23.90;11.38;;;;;;;-2.23;64.37;96554.22;2078747;28;20195;-57
2022/03/04 02:35:30;;;;;;;16.98;10.18;;;;;;;-2.21;64.36;96554.19;2077521;28;20585;-56
2022/03/04 02:36:32;;;;;;;21.30;10.90;;;;;;;-2.16;63.83;96552.38;2076919;28;20202;-57
2022/03/04 02:37:35;;;;;;;21.48;11.82;;;;;;;-2.19;63.98;96548.16;2074850;28;20571;-57
2022/03/04 02:38:37;;;;;;;19.48;11.20;;;;;;;-2.11;63.54;96554.88;2078002;28;20198;-57
2022/03/04 02:39:38;;;;;;;21.23;11.48;;;;;;;-2.19;63.88;96560.13;2077143;28;20212;-58
2022/03/04 02:40:40;;;;;;;21.23;11.93;;;;;;;-2.28;64.21;96555.16;2076815;28;20197;-57
2022/03/04 02:41:42;;;;;;;22.52;11.05;;;;;;;-2.40;64.66;96557.06;2077362;28;20205;-56
2022/03/04 02:42:43;;;;;;;18.15;9.73;;;;;;;-2.30;64.51;96557.75;2077735;28;20197;-57
2022/03/04 02:43:45;;;;;;;22.52;12.73;;;;;;;-2.30;64.50;96555.19;2076817;28;20206;-56
2022/03/04 02:44:46;;;;;;;20.38;10.48;;;;;;;-2.42;64.68;96561.41;2076881;28;20771;-56
2022/03/04 02:45:49;;;;;;;22.70;12.13;;;;;;;-2.54;64.74;96563.34;2074650;28;20229;-56
2022/03/04 02:46:50;;;;;;;21.10;11.05;;;;;;;-2.54;64.94;96563.34;2077103;28;20590;-57
2022/03/04 02:47:52;;;;;;;23.70;11.45;;;;;;;-2.68;65.20;96567.00;2075467;28;20194;-57
2022/03/04 02:48:54;;;;;;;19.92;11.80;;;;;;;-2.80;65.84;96568.03;2076747;28;20205;-56
2022/03/04 02:49:55;;;;;;;30.70;11.60;;;;;;;-2.88;65.96;96574.16;2076741;28;20218;-57
2022/03/04 02:50:57;;;;;;;20.85;11.05;;;;;;;-2.99;66.58;96571.78;2076816;28;20201;-57
2022/03/04 02:51:58;;;;;;;21.38;11.27;;;;;;;-3.08;66.52;96557.38;2079208;28;20197;-57
2022/03/04 02:53:00;;;;;;;24.85;12.60;;;;;;;-3.15;66.28;96570.34;2076492;28;20213;-57
2022/03/04 02:54:02;;;;;;;32.50;11.07;;;;;;;-3.37;67.46;96575.75;2076531;28;20213;-56
2022/03/04 02:55:03;;;;;;;24.02;11.10;;;;;;;-3.40;67.59;96574.06;2075572;28;20225;-57
2022/03/04 02:56:05;;;;;;;22.83;11.68;;;;;;;-3.47;68.11;96572.50;2075157;28;20201;-57
2022/03/04 02:57:06;;;;;;;23.55;12.10;;;;;;;-3.32;67.70;96573.13;2077431;28;20739;-56
2022/03/04 02:58:08;;;;;;;25.50;11.55;;;;;;;-3.43;67.84;96558.78;2078972;28;20213;-56
2022/03/04 02:59:09;;;;;;;23.35;11.48;;;;;;;-3.29;67.40;96562.81;2073854;28;20202;-57
2022/03/04 03:00:13;;;;;;;27.65;11.38;;;;;;;-3.27;67.40;96572.19;2073403;28;20245;-56
2022/03/04 03:01:14;;;;;;;22.63;11.82;;;;;;;-3.35;67.67;96571.47;2076469;28;20357;-57
2022/03/04 03:02:16;;;;;;;23.30;12.02;;;;;;;-3.48;68.34;96570.78;2078617;28;20194;-57
2022/03/04 03:03:18;;;;;;;27.23;12.23;;;;;;;-3.53;68.64;96569.97;2078750;28;20197;-56
2022/03/04 03:04:20;;;;;;;20.20;10.80;;;;;;;-3.47;68.42;96577.59;2076552;28;20205;-56
2022/03/04 03:05:22;;;;;;;24.10;11.07;;;;;;;-3.34;68.22;96582.56;2073154;28;20217;-57
2022/03/04 03:06:23;;;;;;;20.52;11.55;;;;;;;-3.39;68.18;96578.34;2077823;28;20197;-57
2022/03/04 03:07:25;;;;;;;20.23;10.77;;;;;;;-3.40;68.01;96574.06;2076695;28;20209;-56
2022/03/04 03:08:28;;;;;;;27.08;12.13;;;;;;;-3.41;68.40;96577.53;2076659;28;20230;-56
2022/03/04 03:09:32;;;;;;;22.80;11.73;;;;;;;-3.38;68.46;96576.63;2077593;28;20641;-56
2022/03/04 03:10:34;;;;;;;21.25;11.27;;;;;;;-3.41;68.27;96574.97;2076108;28;20219;-56
2022/03/04 03:11:37;;;;;;;23.13;10.35;;;;;;;-3.52;68.32;96566.56;2078816;28;20872;-56
2022/03/04 03:12:40;;;;;;;20.60;11.38;;;;;;;-3.60;68.80;96578.63;2074729;28;20507;-56
2022/03/04 03:13:41;;;;;;;23.13;12.52;;;;;;;-3.74;69.32;96576.25;2076412;28;20198;-57
2022/03/04 03:14:43;;;;;;;24.15;11.88;;;;;;;-3.73;69.65;96577.94;2076503;28;20209;-56
2022/03/04 03:15:45;;;;;;;19.08;10.57;;;;;;;-3.70;69.24;96580.47;2075443;28;20205;-56
2022/03/04 03:16:46;;;;;;;24.38;11.80;;;;;;;-3.66;69.25;96577.00;2076130;28;20641;-56
2022/03/04 03:17:48;;;;;;;23.35;11.27;;;;;;;-3.62;69.47;96573.53;2076545;28;20213;-56
2022/03/04 03:18:49;;;;;;;24.40;12.00;;;;;;;-3.50;68.72;96575.06;2076678;28;20197;-57
2022/03/04 03:19:50;;;;;;;21.83;10.63;;;;;;;-3.45;68.25;96568.19;2076838;28;20648;-57
2022/03/04 03:20:52;;;;;;;23.33;12.20;;;;;;;-3.56;68.91;96567.47;2073432;28;20626;-57
2022/03/04 03:21:53;;;;;;;21.63;11.38;;;;;;;-3.72;69.01;96563.41;2075565;28;20709;-57
2022/03/04 03:22:55;;;;;;;22.65;12.30;;;;;;;-3.73;69.83;96571.97;2075575;28;20979;-56
2022/03/04 03:23:56;;;;;;;28.23;11.40;;;;;;;-3.73;69.53;96569.41;2076059;28;20260;-59
2022/03/04 03:24:58;;;;;;;29.33;12.82;;;;;;;-3.66;69.25;96577.00;2074794;28;20228;-59
2022/03/04 03:25:59;;;;;;;28.80;13.15;;;;;;;-3.64;68.81;96572.72;2074631;28;20226;-59
2022/03/04 03:27:01;;;;;;;22.90;12.30;;;;;;;-3.60;68.76;96573.50;2077122;28;20694;-59
2022/03/04 03:28:03;;;;;;;23.77;11.88;;;;;;;-3.59;68.21;96575.19;2076789;28;20193;-59
2022/03/04 03:29:05;;;;;;;22.95;12.60;;;;;;;-3.35;68.20;96570.59;2076818;28;20205;-59
2022/03/04 03:30:08;;;;;;;23.38;12.50;;;;;;;-3.31;67.86;96573.13;2075889;28;20228;-59
2022/03/04 03:31:10;;;;;;;22.30;12.48;;;;;;;-3.43;68.14;96576.69;2074837;28;20197;-58
2022/03/04 03:32:12;;;;;;;24.02;11.55;;;;;;;-3.51;68.68;96568.25;2075192;28;20201;-59
2022/03/04 03:33:13;;;;;;;21.48;12.20;;;;;;;-3.44;68.47;96564.75;2076341;28;20193;-59
2022/03/04 03:34:15;;;;;;;26.92;12.50;;;;;;;-3.51;68.97;96570.81;2077449;28;20197;-59
2022/03/04 03:35:17;;;;;;;26.48;13.57;;;;;;;-3.46;68.59;96571.59;2076485;28;20562;-59
2022/03/04 03:36:20;;;;;;;23.70;12.63;;;;;;;-3.27;68.06;96569.63;2076533;28;20756;-59
2022/03/04 03:37:21;;;;;;;29.15;13.20;;;;;;;-3.35;68.31;96568.91;2075934;28;20214;-59
2022/03/04 03:38:24;;;;;;;26.08;11.65;;;;;;;-3.45;68.42;96565.63;2076176;28;20209;-59
2022/03/04 03:39:25;;;;;;;23.08;12.20;;;;;;;-3.54;68.90;96567.47;2077551;28;20530;-59
2022/03/04 03:40:27;;;;;;;32.08;12.02;;;;;;;-3.51;69.11;96568.25;2074104;28;20217;-59
2022/03/04 03:41:28;;;;;;;23.30;12.77;;;;;;;-3.55;68.97;96558.06;2074509;28;20209;-59
2022/03/04 03:42:30;;;;;;;25.63;12.75;;;;;;;-3.53;69.03;96567.44;2078384;28;20216;-57
2022/03/04 03:43:31;;;;;;;27.63;12.15;;;;;;;-3.52;69.33;96574.25;2077888;28;20202;-56
2022/03/04 03:44:33;;;;;;;21.83;12.23;;;;;;;-3.40;69.18;96571.50;2077649;28;20212;-56
2022/03/04 03:45:35;;;;;;;22.60;12.32;;;;;;;-3.40;68.34;96574.06;2076337;28;20253;-57
2022/03/04 03:46:36;;;;;;;26.63;13.23;;;;;;;-3.54;68.84;96568.31;2075008;28;20201;-57
2022/03/04 03:47:40;;;;;;;29.42;14.30;;;;;;;-3.55;68.93;96570.88;2076459;28;20193;-56
2022/03/04 03:48:41;;;;;;;24.65;12.25;;;;;;;-3.60;69.06;96570.97;2074506;28;20209;-56
2022/03/04 03:49:42;;;;;;;30.42;13.20;;;;;;;-3.56;69.13;96574.31;2077438;28;20193;-57
2022/03/04 03:50:44;;;;;;;22.23;12.18;;;;;;;-3.35;68.63;96573.16;2075834;28;20648;-57
2022/03/04 03:51:45;;;;;;;21.63;12.63;;;;;;;-3.48;69.27;96569.94;2075740;28;20210;-55
2022/03/04 03:52:47;;;;;;;24.50;12.90;;;;;;;-3.61;69.64;96567.56;2077142;28;20713;-56
2022/03/04 03:53:48;;;;;;;28.13;13.40;;;;;;;-3.54;69.43;96570.03;2076754;28;20200;-56
2022/03/04 03:54:50;;;;;;;24.77;13.73;;;;;;;-3.54;69.42;96570.88;2075854;28;20200;-56
2022/03/04 03:55:51;;;;;;;28.45;13.60;;;;;;;-3.66;70.13;96578.72;2076571;28;20202;-57
2022/03/04 03:56:53;;;;;;;23.98;12.85;;;;;;;-3.78;70.17;96577.16;2077590;28;20403;-59
2022/03/04 03:57:54;;;;;;;21.55;11.85;;;;;;;-3.82;70.34;96578.91;2079127;28;20206;-59
2022/03/04 03:58:58;;;;;;;27.60;13.30;;;;;;;-3.86;70.27;96577.25;2073428;28;20217;-59
2022/03/04 04:00:00;;;;;;;31.85;13.00;;;;;;;-3.78;70.20;96572.03;2075600;28;20213;-59
2022/03/04 04:01:02;;;;;;;22.33;13.07;;;;;;;-3.80;70.19;96577.19;2074434;28;20875;-59
2022/03/04 04:02:04;;;;;;;30.15;12.55;;;;;;;-3.82;70.06;96575.50;2074929;28;20197;-59
2022/03/04 04:03:07;;;;;;;21.52;12.23;;;;;;;-3.75;70.07;96573.72;2077995;28;20201;-59
2022/03/04 04:04:12;;;;;;;25.10;12.68;;;;;;;-3.66;70.04;96573.59;2074722;28;20203;-59
2022/03/04 04:05:13;;;;;;;21.48;11.93;;;;;;;-3.68;69.40;96576.19;2076110;28;20213;-59
2022/03/04 04:06:15;;;;;;;36.50;12.63;;;;;;;-3.70;69.22;96571.94;2076845;28;20197;-59
2022/03/04 04:07:17;;;;;;;23.50;12.55;;;;;;;-3.65;69.18;96580.41;2074685;28;20201;-59
2022/03/04 04:08:19;;;;;;;20.33;12.18;;;;;;;-3.67;69.46;96582.13;2075070;28;20205;-59
2022/03/04 04:09:20;;;;;;;33.05;14.45;;;;;;;-3.85;69.93;96581.50;2076022;28;20233;-59
2022/03/04 04:10:22;;;;;;;27.50;13.43;;;;;;;-3.80;69.95;96584.84;2073599;28;20244;-59
2022/03/04 04:11:27;;;;;;;27.30;12.93;;;;;;;-3.89;70.33;96577.28;2073633;28;20197;-59
2022/03/04 04:12:28;;;;;;;30.27;12.48;;;;;;;-3.69;69.56;96583.88;2074117;28;20209;-59
2022/03/04 04:13:30;;;;;;;26.27;12.57;;;;;;;-3.74;69.71;96585.63;2078073;28;20204;-59
2022/03/04 04:14:32;;;;;;;21.60;12.82;;;;;;;-3.82;70.09;96578.91;2076115;28;20200;-59
2022/03/04 04:15:34;;;;;;;25.30;13.77;;;;;;;-3.82;69.97;96586.59;2077964;28;20202;-59
2022/03/04 04:16:37;;;;;;;22.33;11.80;;;;;;;-3.69;69.69;96583.88;2074928;28;20687;-59
2022/03/04 04:17:38;;;;;;;25.63;12.05;;;;;;;-3.69;69.63;96583.88;2077801;28;20197;-59
2022/03/04 04:18:40;;;;;;;25.13;13.00;;;;;;;-3.78;69.78;96590.81;2077577;28;20216;-59
2022/03/04 04:19:42;;;;;;;27.20;12.98;;;;;;;-3.78;69.57;96577.16;2074405;28;20197;-59
2022/03/04 04:20:43;;;;;;;23.00;11.32;;;;;;;-3.83;69.96;96579.75;2076596;28;20194;-59
2022/03/04 04:21:45;;;;;;;28.00;11.85;;;;;;;-3.83;70.02;96584.03;2074739;28;20209;-59
2022/03/04 04:22:46;;;;;;;23.52;13.43;;;;;;;-3.83;70.18;96582.31;2075983;28;20213;-59
2022/03/04 04:23:48;;;;;;;23.83;12.77;;;;;;;-3.79;70.14;96589.09;2077323;28;20810;-59
2022/03/04 04:24:49;;;;;;;21.67;11.57;;;;;;;-3.79;70.22;96583.13;2077105;28;20545;-59
2022/03/04 04:25:51;;;;;;;24.58;11.73;;;;;;;-3.86;70.32;96582.38;2076907;28;20277;-59
2022/03/04 04:26:52;;;;;;;30.25;13.68;;;;;;;-3.96;70.90;96580.78;2075775;28;20193;-59
2022/03/04 04:27:54;;;;;;;23.70;13.02;;;;;;;-3.92;70.26;96586.69;2075424;28;20204;-59
2022/03/04 04:28:55;;;;;;;22.17;11.25;;;;;;;-3.88;70.41;96586.66;2074827;28;20201;-59
2022/03/04 04:29:57;;;;;;;29.00;12.93;;;;;;;-3.89;70.21;96584.97;2074021;28;20221;-59
2022/03/04 04:30:58;;;;;;;23.83;12.32;;;;;;;-3.92;70.48;96582.47;2074865;28;20205;-59
2022/03/04 04:32:00;;;;;;;22.70;12.10;;;;;;;-3.98;70.57;96588.50;2075775;28;20233;-59
2022/03/04 04:33:01;;;;;;;29.52;11.95;;;;;;;-3.94;70.41;96588.44;2076875;28;20258;-59
2022/03/04 04:34:03;;;;;;;19.52;11.57;;;;;;;-3.95;70.33;96586.75;2073480;28;20205;-59
2022/03/04 04:35:05;;;;;;;23.50;11.68;;;;;;;-4.16;70.60;96583.56;2074815;28;20225;-59
2022/03/04 04:36:07;;;;;;;25.88;12.93;;;;;;;-4.15;70.58;96589.56;2076492;28;20538;-59
2022/03/04 04:37:08;;;;;;;40.65;13.25;;;;;;;-4.17;70.88;96579.31;2074996;28;20223;-59
2022/03/04 04:38:10;;;;;;;21.80;11.25;;;;;;;-4.07;70.30;96587.75;2077452;28;20194;-59
2022/03/04 04:39:11;;;;;;;24.98;11.98;;;;;;;-4.13;70.55;96591.22;2075659;28;20242;-59
2022/03/04 04:40:13;;;;;;;22.85;11.77;;;;;;;-4.06;70.33;96589.44;2076929;28;20222;-59
2022/03/04 04:41:14;;;;;;;20.73;11.35;;;;;;;-4.07;70.72;96591.16;2075995;28;20198;-59
2022/03/04 04:42:16;;;;;;;23.25;12.05;;;;;;;-4.11;70.26;96571.59;2077534;28;20198;-59
2022/03/04 04:43:18;;;;;;;27.27;13.00;;;;;;;-4.00;70.03;96586.78;2075743;28;20201;-59
2022/03/04 04:44:20;;;;;;;28.50;12.50;;;;;;;-3.99;70.42;96591.06;2075952;28;20553;-59